Onweer radar Meer informatie blitzortung!


Regen radar Meer informatie rain snow radar


Andere websites:

Template documentation
and downloads

And another site

Weather-Template Info-Forum

Webcam-Havenmond

Webcam-Havenkantoor

Webcam-Werkhaven

Webcam-Westhaven



Het weer levert geen direct gevaar op.    Er zijn geen waarschuwingen afgegeven.

METAR rapporten vliegvelden

   
EBAW - Antwerp
Gewijzigd: 16-07-2019 16:20
Grotendeels bewolkt  
Grotendeels bewolkt  
   Wind: NNW 11.1 km/h
Wind: NNW 11.1 km/h
Temperatuur: 19°C
Dauwpunt: 11°C
Vochtigheid: 60%
Barometer: 1019 hPa
Bewolking: Grotendeels bewolkt
Zicht: meer dan 10 km
Bewolking: Grotendeels bewolkt 3700 ft
EBAW 161420Z 34006KT 310V010 9999 BKN037 19/11 Q1019 NOSIG
EBLG - Li├Ęge
Gewijzigd: 16-07-2019 16:20
Licht bewolkt  
Licht bewolkt  
   Wind: Noorden 7.4 km/h
Wind: Noorden 7.4 km/h
Temperatuur: 17°C
Dauwpunt: 10°C
Vochtigheid: 64%
Barometer: 1019 hPa
Bewolking: Licht bewolkt
Zicht: meer dan 10 km
Bewolking: Licht bewolkt 2700 ft
EBLG 161420Z 01004KT 300V060 9999 FEW027 17/10 Q1019 NOSIG
EBCV - Mons/Bergen
Gewijzigd: 16-07-2019 16:25
Helder  
Helder  
   Wind: Noorden 7.4 km/h
Wind: Noorden 7.4 km/h
Temperatuur: 20°C
Dauwpunt: 11°C
Vochtigheid: 56%
Barometer: 1019 hPa
Bewolking: Helder
Zicht: meer dan 10 km
Bewolking: Helder
EBCV 161425Z AUTO 36004KT 9999 NCD 20/11 Q1019 BLU
EHBK - Maastricht
Gewijzigd: 16-07-2019 16:25
Bewolking  
Bewolking  
   Wind: WZW 9.3 km/h
Wind: WZW 9.3 km/h
Temperatuur: 17°C
Dauwpunt: 11°C
Vochtigheid: 68%
Barometer: 1019 hPa
Bewolking: Bewolking
Zicht: meer dan 10 km
Bewolking: Bewolking 2500 ft
EHBK 161425Z AUTO 24005KT 190V280 9999 OVC025 17/11 Q1019 NOSIG
ELLX - Luxemburg
Gewijzigd: 16-07-2019 16:50
Helder  
Helder  
   Wind: Noorden 11.1 km/h
Wind: Noorden 11.1 km/h
Temperatuur: 22°C
Dauwpunt: 10°C
Vochtigheid: 47%
Barometer: 1018 hPa
Zicht: meer dan 10 km
Bewolking: Helder
ELLX 161450Z 01006KT 310V090 CAVOK 22/10 Q1018 NOSIG
EBOS - Oostende
Gewijzigd: 16-07-2019 16:50
Licht bewolkt  
Licht bewolkt  
   Wind: NW 11.1 km/h
Wind: NW 11.1 km/h
Temperatuur: 19°C
Dauwpunt: 12°C
Vochtigheid: 64%
Barometer: 1019 hPa
Bewolking: Licht bewolkt
Zicht: meer dan 10 km
Bewolking: Licht bewolkt 2600 ft
EBOS 161450Z 31006KT 250V340 9999 FEW026 19/12 Q1019 NOSIG

Script ontwikkeld door  Saratoga-weather.org Aangepast voor de template door  Weerstation Leuven

U vindt ons ook hier:

Het Weer Aktueel

European Weather Network

WeatherCloud

Weather Underground

Benelux Weer Netwerk

AWEKAS

Apparatuur in gebruik:

Weerstation
Davis VP2

Weerprogramma
Meteohub

Weercomputer
My Computer

Webleverancier
My provider

Davis VP2

Meteohub

My Computer

My provider